sensor_id;sensor_type;location;lat;lon;timestamp;pressure;altitude;pressure_sealevel;temperature;humidity
53089;BME280;38968;47.696;17.540;2023-04-01T00:00:37;9901744;;;11.66;70.75098
53089;BME280;38968;47.696;17.540;2023-04-01T00:05:36;9901998;;;11.68;70.42188
53089;BME280;38968;47.696;17.540;2023-04-01T00:10:36;9902553;;;11.1;72.91309
53089;BME280;38968;47.696;17.540;2023-04-01T00:15:37;9901939;;;11.36;72.08691
53089;BME280;38968;47.696;17.540;2023-04-01T00:20:37;9901714;;;11.26;72.37793
53089;BME280;38968;47.696;17.540;2023-04-01T00:25:36;9900609;;;11.42;71.82227
53089;BME280;38968;47.696;17.540;2023-04-01T00:30:36;9901602;;;11.58;71.24023
53089;BME280;38968;47.696;17.540;2023-04-01T00:35:36;9901640;;;11.47;71.90918
53089;BME280;38968;47.696;17.540;2023-04-01T00:40:38;9900886;;;11.38;72.2041
53089;BME280;38968;47.696;17.540;2023-04-01T00:45:38;9900935;;;11.24;72.87793
53089;BME280;38968;47.696;17.540;2023-04-01T00:50:37;9902002;;;11.43;71.69824
53089;BME280;38968;47.696;17.540;2023-04-01T00:55:38;9900762;;;11.48;71.30469
53089;BME280;38968;47.696;17.540;2023-04-01T01:00:36;9901889;;;11.5;71.21582
53089;BME280;38968;47.696;17.540;2023-04-01T01:05:46;9900662;;;11.52;71.11719
53089;BME280;38968;47.696;17.540;2023-04-01T01:10:38;9901512;;;11.34;71.25879
53089;BME280;38968;47.696;17.540;2023-04-01T01:15:40;9901059;;;11.39;71.3584
53089;BME280;38968;47.696;17.540;2023-04-01T01:25:56;9899842;;;11.61;70.18164
53089;BME280;38968;47.696;17.540;2023-04-01T01:35:48;9899183;;;11.51;70.16602
53089;BME280;38968;47.696;17.540;2023-04-01T01:40:37;9898277;;;11.6;70.3291
53089;BME280;38968;47.696;17.540;2023-04-01T01:45:39;9898726;;;11.33;70.51367
53089;BME280;38968;47.696;17.540;2023-04-01T01:50:37;9897634;;;11.2;71.35156
53089;BME280;38968;47.696;17.540;2023-04-01T01:55:38;9898587;;;11.22;71.5498
53089;BME280;38968;47.696;17.540;2023-04-01T02:00:36;9897373;;;11.45;70.56836
53089;BME280;38968;47.696;17.540;2023-04-01T02:05:37;9897354;;;11.49;70.33496
53089;BME280;38968;47.696;17.540;2023-04-01T02:10:37;9896569;;;11.49;70.01367
53089;BME280;38968;47.696;17.540;2023-04-01T02:15:37;9895292;;;11.17;70.79785
53089;BME280;38968;47.696;17.540;2023-04-01T02:20:37;9893955;;;11.24;71.22168
53089;BME280;38968;47.696;17.540;2023-04-01T02:25:37;9894844;;;11.44;70.32617
53089;BME280;38968;47.696;17.540;2023-04-01T02:30:38;9894781;;;11.37;70.09766
53089;BME280;38968;47.696;17.540;2023-04-01T02:35:37;9894890;;;11.55;69.11816
53089;BME280;38968;47.696;17.540;2023-04-01T02:40:44;9893803;;;11.42;68.61719
53089;BME280;38968;47.696;17.540;2023-04-01T02:45:36;9893312;;;11.1;69.70996
53089;BME280;38968;47.696;17.540;2023-04-01T02:50:36;9894234;;;10.95;69.96191
53089;BME280;38968;47.696;17.540;2023-04-01T02:55:36;9893781;;;11;70.08496
53089;BME280;38968;47.696;17.540;2023-04-01T03:00:36;9894523;;;10.87;70.20117
53089;BME280;38968;47.696;17.540;2023-04-01T03:05:36;9894139;;;11.22;69.30762
53089;BME280;38968;47.696;17.540;2023-04-01T03:10:36;9893686;;;11.51;68.13867
53089;BME280;38968;47.696;17.540;2023-04-01T03:15:36;9893192;;;11.18;68.58008
53089;BME280;38968;47.696;17.540;2023-04-01T03:20:36;9893041;;;11.36;68.25293
53089;BME280;38968;47.696;17.540;2023-04-01T03:25:36;9893517;;;11.25;68.77441
53089;BME280;38968;47.696;17.540;2023-04-01T03:30:36;9895944;;;11.05;68.74219
53089;BME280;38968;47.696;17.540;2023-04-01T03:35:36;9896348;;;11.14;68.6416
53089;BME280;38968;47.696;17.540;2023-04-01T03:40:36;9896744;;;11.01;68.89551
53089;BME280;38968;47.696;17.540;2023-04-01T03:45:46;9897881;;;11;68.91699
53089;BME280;38968;47.696;17.540;2023-04-01T03:50:36;9898734;;;10.8;69.57129
53089;BME280;38968;47.696;17.540;2023-04-01T03:55:36;9899501;;;10.84;69.72754
53089;BME280;38968;47.696;17.540;2023-04-01T04:00:36;9900770;;;10.7;69.45215
53089;BME280;38968;47.696;17.540;2023-04-01T04:05:36;9902051;;;10.78;69.13379
53089;BME280;38968;47.696;17.540;2023-04-01T04:10:36;9899888;;;10.99;68.56055
53089;BME280;38968;47.696;17.540;2023-04-01T04:15:36;9899436;;;11.04;67.32227
53089;BME280;38968;47.696;17.540;2023-04-01T04:20:36;9898778;;;11.17;67.21582
53089;BME280;38968;47.696;17.540;2023-04-01T04:25:36;9898114;;;11.32;66.5752
53089;BME280;38968;47.696;17.540;2023-04-01T04:30:36;9897363;;;11.23;66.10254
53089;BME280;38968;47.696;17.540;2023-04-01T04:35:36;9897194;;;11.22;65.74512
53089;BME280;38968;47.696;17.540;2023-04-01T04:40:37;9897732;;;11.17;65.5332
53089;BME280;38968;47.696;17.540;2023-04-01T04:45:36;9898355;;;11.13;65.9502
53089;BME280;38968;47.696;17.540;2023-04-01T04:50:36;9897534;;;11.24;65.69141
53089;BME280;38968;47.696;17.540;2023-04-01T04:55:36;9896824;;;11.28;65.37695
53089;BME280;38968;47.696;17.540;2023-04-01T05:00:36;9897764;;;11.33;65.33887
53089;BME280;38968;47.696;17.540;2023-04-01T05:05:36;9898174;;;11.4;64.54688
53089;BME280;38968;47.696;17.540;2023-04-01T05:10:36;9897679;;;11.33;64.4668
53089;BME280;38968;47.696;17.540;2023-04-01T05:15:36;9897827;;;11.4;63.81152
53089;BME280;38968;47.696;17.540;2023-04-01T05:20:36;9897747;;;11.61;63.09668
53089;BME280;38968;47.696;17.540;2023-04-01T05:25:37;9897960;;;11.75;62.73828
53089;BME280;38968;47.696;17.540;2023-04-01T05:30:36;9896788;;;11.85;62.17871
53089;BME280;38968;47.696;17.540;2023-04-01T05:35:36;9897523;;;11.99;61.63574
53089;BME280;38968;47.696;17.540;2023-04-01T05:40:36;9897900;;;12.14;61.23145
53089;BME280;38968;47.696;17.540;2023-04-01T05:45:36;9898730;;;12.25;60.60352
53089;BME280;38968;47.696;17.540;2023-04-01T05:50:36;9897495;;;12.28;60.35352
53089;BME280;38968;47.696;17.540;2023-04-01T05:55:36;9897651;;;12.54;60.06836
53089;BME280;38968;47.696;17.540;2023-04-01T06:00:36;9898217;;;12.66;59.87695
53089;BME280;38968;47.696;17.540;2023-04-01T06:05:41;9899393;;;12.77;59.25879
53089;BME280;38968;47.696;17.540;2023-04-01T06:15:39;9899855;;;13.13;58.7998
53089;BME280;38968;47.696;17.540;2023-04-01T06:25:39;9899438;;;13.29;57.87598
53089;BME280;38968;47.696;17.540;2023-04-01T06:30:52;9899909;;;13.42;57.34961
53089;BME280;38968;47.696;17.540;2023-04-01T06:36:04;9900586;;;13.47;57.4834
53089;BME280;38968;47.696;17.540;2023-04-01T06:46:02;9899510;;;13.72;57.18164
53089;BME280;38968;47.696;17.540;2023-04-01T06:50:53;9900655;;;13.9;56.96191
53089;BME280;38968;47.696;17.540;2023-04-01T06:55:39;9901864;;;13.94;56.52832
53089;BME280;38968;47.696;17.540;2023-04-01T07:00:39;9901520;;;13.92;55.94824
53089;BME280;38968;47.696;17.540;2023-04-01T07:05:36;9902134;;;14.11;56.06543
53089;BME280;38968;47.696;17.540;2023-04-01T07:11:01;9901875;;;14.29;54.92969
53089;BME280;38968;47.696;17.540;2023-04-01T07:15:38;9901477;;;14.39;53.77344
53089;BME280;38968;47.696;17.540;2023-04-01T07:20:37;9902609;;;14.41;53.97266
53089;BME280;38968;47.696;17.540;2023-04-01T07:25:43;9902359;;;14.57;52.56641
53089;BME280;38968;47.696;17.540;2023-04-01T07:35:41;9901875;;;14.66;51.19824
53089;BME280;38968;47.696;17.540;2023-04-01T07:40:52;9902418;;;14.81;51.35352
53089;BME280;38968;47.696;17.540;2023-04-01T07:45:43;9901492;;;15.08;51.06055
53089;BME280;38968;47.696;17.540;2023-04-01T07:50:39;9902622;;;15.28;50.1543
53089;BME280;38968;47.696;17.540;2023-04-01T07:55:47;9903055;;;15.29;48.84277
53089;BME280;38968;47.696;17.540;2023-04-01T08:00:51;9902574;;;15.54;50.16113
53089;BME280;38968;47.696;17.540;2023-04-01T08:05:41;9902612;;;15.64;49.32324
53089;BME280;38968;47.696;17.540;2023-04-01T08:10:52;9901848;;;16.08;46.54297
53089;BME280;38968;47.696;17.540;2023-04-01T08:15:52;9902867;;;15.98;46.68457
53089;BME280;38968;47.696;17.540;2023-04-01T08:20:47;9902002;;;16.28;45.49121
53089;BME280;38968;47.696;17.540;2023-04-01T08:25:37;9902505;;;16.33;46.05566
53089;BME280;38968;47.696;17.540;2023-04-01T08:35:48;9903856;;;16.42;44.39844
53089;BME280;38968;47.696;17.540;2023-04-01T08:40:56;9903798;;;16.21;45.13379
53089;BME280;38968;47.696;17.540;2023-04-01T08:55:56;9902143;;;17.27;42.57715
53089;BME280;38968;47.696;17.540;2023-04-01T09:00:38;9902867;;;16.93;43.0127
53089;BME280;38968;47.696;17.540;2023-04-01T09:10:53;9903204;;;17.11;42.23438
53089;BME280;38968;47.696;17.540;2023-04-01T09:35:50;9903815;;;17.42;41.83105
53089;BME280;38968;47.696;17.540;2023-04-01T09:45:58;9903301;;;17.69;40.25195
53089;BME280;38968;47.696;17.540;2023-04-01T09:51:00;9903019;;;17.72;41.64844
53089;BME280;38968;47.696;17.540;2023-04-01T10:00:58;9902700;;;17.81;40.16895
53089;BME280;38968;47.696;17.540;2023-04-01T10:06:03;9903317;;;17.66;39.7334
53089;BME280;38968;47.696;17.540;2023-04-01T10:26:08;9903190;;;18.15;38.71191
53089;BME280;38968;47.696;17.540;2023-04-01T10:40:53;9902784;;;17.81;39.75977
53089;BME280;38968;47.696;17.540;2023-04-01T10:51:01;9902898;;;17.92;39.20605
53089;BME280;38968;47.696;17.540;2023-04-01T11:35:55;9901228;;;18.74;37.83398
53089;BME280;38968;47.696;17.540;2023-04-01T11:55:54;9902656;;;18.44;36.35254
53089;BME280;38968;47.696;17.540;2023-04-01T12:01:01;9901462;;;19.05;35.51953
53089;BME280;38968;47.696;17.540;2023-04-01T12:10:44;9900585;;;19.17;36.00098
53089;BME280;38968;47.696;17.540;2023-04-01T12:15:48;9900989;;;19.23;35.41602
53089;BME280;38968;47.696;17.540;2023-04-01T12:30:39;9901100;;;18.93;35.58105
53089;BME280;38968;47.696;17.540;2023-04-01T12:40:59;9902595;;;18.53;35.6543
53089;BME280;38968;47.696;17.540;2023-04-01T12:51:01;9901812;;;19.06;34.48438
53089;BME280;38968;47.696;17.540;2023-04-01T12:55:40;9901095;;;18.81;35.47656
53089;BME280;38968;47.696;17.540;2023-04-01T13:05:48;9901541;;;18.39;36.60645
53089;BME280;38968;47.696;17.540;2023-04-01T13:15:58;9900648;;;19.21;35.27344
53089;BME280;38968;47.696;17.540;2023-04-01T13:21:07;9901244;;;18.85;36.0332
53089;BME280;38968;47.696;17.540;2023-04-01T13:30:44;9900855;;;19.94;34.82422
53089;BME280;38968;47.696;17.540;2023-04-01T13:35:46;9900839;;;19.19;34.97754
53089;BME280;38968;47.696;17.540;2023-04-01T13:40:51;9900102;;;18.97;34.91309
53089;BME280;38968;47.696;17.540;2023-04-01T13:46:04;9900903;;;20.85;32.35352
53089;BME280;38968;47.696;17.540;2023-04-01T13:55:52;9900114;;;21.07;31.98047
53089;BME280;38968;47.696;17.540;2023-04-01T14:05:53;9898682;;;22.67;29.71875
53089;BME280;38968;47.696;17.540;2023-04-01T14:10:53;9898764;;;20.87;32.11816
53089;BME280;38968;47.696;17.540;2023-04-01T14:15:48;9899038;;;20.5;32.28125
53089;BME280;38968;47.696;17.540;2023-04-01T14:26:00;9898509;;;23.3;29.22559
53089;BME280;38968;47.696;17.540;2023-04-01T14:30:52;9897739;;;24.69;26.79492
53089;BME280;38968;47.696;17.540;2023-04-01T14:35:38;9898089;;;24.5;26.7959
53089;BME280;38968;47.696;17.540;2023-04-01T14:50:47;9898612;;;25.19;25.82031
53089;BME280;38968;47.696;17.540;2023-04-01T15:05:46;9897602;;;26.8;22.75391
53089;BME280;38968;47.696;17.540;2023-04-01T15:10:52;9897003;;;27.22;22.94336
53089;BME280;38968;47.696;17.540;2023-04-01T15:30:57;9897372;;;27.21;22.60547
53089;BME280;38968;47.696;17.540;2023-04-01T15:36:02;9898355;;;26.76;22.06641
53089;BME280;38968;47.696;17.540;2023-04-01T15:50:50;9898845;;;26.81;21.94824
53089;BME280;38968;47.696;17.540;2023-04-01T16:00:57;9899770;;;25.1;24.73828
53089;BME280;38968;47.696;17.540;2023-04-01T16:20:51;9902305;;;21.57;29.58594
53089;BME280;38968;47.696;17.540;2023-04-01T16:25:44;9901977;;;21.43;29.94336
53089;BME280;38968;47.696;17.540;2023-04-01T16:55:45;9905434;;;18.92;36.22656
53089;BME280;38968;47.696;17.540;2023-04-01T17:00:41;9905373;;;18.75;36.76465
53089;BME280;38968;47.696;17.540;2023-04-01T17:10:47;9906516;;;18.05;37.2002
53089;BME280;38968;47.696;17.540;2023-04-01T17:15:58;9906626;;;17.73;38.39258
53089;BME280;38968;47.696;17.540;2023-04-01T17:20:43;9907497;;;17.75;38.41797
53089;BME280;38968;47.696;17.540;2023-04-01T17:26:04;9907944;;;17.58;38.98926
53089;BME280;38968;47.696;17.540;2023-04-01T17:30:46;9908227;;;17.25;39.75586
53089;BME280;38968;47.696;17.540;2023-04-01T17:40:53;9910520;;;16.79;40.10059
53089;BME280;38968;47.696;17.540;2023-04-01T17:46:02;9913040;;;16.36;40.76172
53089;BME280;38968;47.696;17.540;2023-04-01T17:50:49;9913086;;;16.11;40.69141
53089;BME280;38968;47.696;17.540;2023-04-01T17:55:49;9914381;;;16.15;40.24121
53089;BME280;38968;47.696;17.540;2023-04-01T18:16:01;9917750;;;15.75;42.66504
53089;BME280;38968;47.696;17.540;2023-04-01T18:25:44;9918580;;;15.68;42.88965
53089;BME280;38968;47.696;17.540;2023-04-01T18:30:38;9919760;;;15.59;43.26563
53089;BME280;38968;47.696;17.540;2023-04-01T18:41:07;9921223;;;15.3;44.29688
53089;BME280;38968;47.696;17.540;2023-04-01T18:45:41;9922247;;;15.36;44.47754
53089;BME280;38968;47.696;17.540;2023-04-01T18:50:47;9922561;;;15.26;44.95605
53089;BME280;38968;47.696;17.540;2023-04-01T18:55:41;9923223;;;15.15;45.38672
53089;BME280;38968;47.696;17.540;2023-04-01T19:00:39;9922680;;;15.37;44.39648
53089;BME280;38968;47.696;17.540;2023-04-01T19:05:42;9922766;;;15.38;44.67676
53089;BME280;38968;47.696;17.540;2023-04-01T19:15:54;9924633;;;15.14;45.68848
53089;BME280;38968;47.696;17.540;2023-04-01T19:20:42;9925609;;;15.12;45.74512
53089;BME280;38968;47.696;17.540;2023-04-01T19:25:46;9926232;;;15.29;45.56348
53089;BME280;38968;47.696;17.540;2023-04-01T19:40:48;9927878;;;14.96;46.83105
53089;BME280;38968;47.696;17.540;2023-04-01T19:50:51;9928998;;;14.81;47.36133
53089;BME280;38968;47.696;17.540;2023-04-01T19:55:48;9929214;;;14.91;46.97754
53089;BME280;38968;47.696;17.540;2023-04-01T20:00:39;9929483;;;14.71;47.74512
53089;BME280;38968;47.696;17.540;2023-04-01T20:05:48;9929286;;;14.56;48.15723
53089;BME280;38968;47.696;17.540;2023-04-01T20:10:46;9929448;;;14.58;48.16113
53089;BME280;38968;47.696;17.540;2023-04-01T20:15:41;9930141;;;14.61;47.83984
53089;BME280;38968;47.696;17.540;2023-04-01T20:20:37;9929923;;;14.5;48.47656
53089;BME280;38968;47.696;17.540;2023-04-01T20:25:52;9930144;;;14.39;48.8125
53089;BME280;38968;47.696;17.540;2023-04-01T20:30:46;9929573;;;14.29;49.05664
53089;BME280;38968;47.696;17.540;2023-04-01T20:40:39;9928081;;;14.3;49.03418
53089;BME280;38968;47.696;17.540;2023-04-01T20:50:50;9929967;;;14.19;49.56641
53089;BME280;38968;47.696;17.540;2023-04-01T20:56:06;9930297;;;14.24;49.53809
53089;BME280;38968;47.696;17.540;2023-04-01T21:00:57;9930873;;;14.12;49.95313
53089;BME280;38968;47.696;17.540;2023-04-01T21:05:45;9931952;;;14.06;50.59473
53089;BME280;38968;47.696;17.540;2023-04-01T21:10:45;9931607;;;14.04;50.14063
53089;BME280;38968;47.696;17.540;2023-04-01T21:25:55;9933762;;;13.7;51.24707
53089;BME280;38968;47.696;17.540;2023-04-01T21:30:44;9934134;;;13.64;51.24121
53089;BME280;38968;47.696;17.540;2023-04-01T21:41:00;9934973;;;13.5;51.62891
53089;BME280;38968;47.696;17.540;2023-04-01T21:46:05;9935414;;;13.5;51.43262
53089;BME280;38968;47.696;17.540;2023-04-01T22:05:39;9935917;;;13.32;52.13965
53089;BME280;38968;47.696;17.540;2023-04-01T22:16:00;9937259;;;13.25;52.33984
53089;BME280;38968;47.696;17.540;2023-04-01T22:20:40;9936633;;;13.29;52.22852
53089;BME280;38968;47.696;17.540;2023-04-01T22:25:59;9937529;;;13.23;52.37109
53089;BME280;38968;47.696;17.540;2023-04-01T22:30:44;9937089;;;13.24;52.5459
53089;BME280;38968;47.696;17.540;2023-04-01T22:36:06;9937083;;;13.25;52.65137
53089;BME280;38968;47.696;17.540;2023-04-01T22:41:01;9937273;;;13.2;52.74902
53089;BME280;38968;47.696;17.540;2023-04-01T22:45:47;9937883;;;13.22;52.76367
53089;BME280;38968;47.696;17.540;2023-04-01T22:50:42;9938145;;;13.22;52.625
53089;BME280;38968;47.696;17.540;2023-04-01T22:55:38;9938737;;;13.27;52.60742
53089;BME280;38968;47.696;17.540;2023-04-01T23:00:44;9938734;;;13.29;52.72559
53089;BME280;38968;47.696;17.540;2023-04-01T23:05:40;9939114;;;13.44;52.47754
53089;BME280;38968;47.696;17.540;2023-04-01T23:10:47;9940112;;;13.34;52.84668
53089;BME280;38968;47.696;17.540;2023-04-01T23:15:37;9939902;;;13.44;52.21191
53089;BME280;38968;47.696;17.540;2023-04-01T23:21:14;9940558;;;13.32;52.95898
53089;BME280;38968;47.696;17.540;2023-04-01T23:35:56;9941273;;;13.28;52.43555
53089;BME280;38968;47.696;17.540;2023-04-01T23:40:37;9941834;;;13.18;52.79199
53089;BME280;38968;47.696;17.540;2023-04-01T23:45:36;9941780;;;13.08;53.15039
53089;BME280;38968;47.696;17.540;2023-04-01T23:50:37;9941786;;;13.06;53.21875
53089;BME280;38968;47.696;17.540;2023-04-01T23:55:38;9943098;;;13.06;53.27637
